sensor_id;sensor_type;location;lat;lon;timestamp;temperature;humidity
44671;DHT22;48397;53.016;-2.260;2023-02-11T00:01:32;9.90;99.90
44671;DHT22;48397;53.016;-2.260;2023-02-11T00:04:01;9.80;99.90
44671;DHT22;48397;53.016;-2.260;2023-02-11T00:06:31;13.40;99.90
44671;DHT22;48397;53.016;-2.260;2023-02-11T00:08:59;9.90;99.90
44671;DHT22;48397;53.016;-2.260;2023-02-11T00:11:28;9.80;99.90
44671;DHT22;48397;53.016;-2.260;2023-02-11T00:14:00;9.80;99.90
44671;DHT22;48397;53.016;-2.260;2023-02-11T00:16:30;9.80;99.90
44671;DHT22;48397;53.016;-2.260;2023-02-11T00:19:01;9.70;99.90
44671;DHT22;48397;53.016;-2.260;2023-02-11T00:21:33;9.70;99.90
44671;DHT22;48397;53.016;-2.260;2023-02-11T00:24:01;9.60;99.90
44671;DHT22;48397;53.016;-2.260;2023-02-11T00:26:33;9.60;99.90
44671;DHT22;48397;53.016;-2.260;2023-02-11T00:29:04;9.60;99.90
44671;DHT22;48397;53.016;-2.260;2023-02-11T00:31:32;9.60;99.90
44671;DHT22;48397;53.016;-2.260;2023-02-11T00:34:01;9.60;99.90
44671;DHT22;48397;53.016;-2.260;2023-02-11T00:38:58;9.40;99.90
44671;DHT22;48397;53.016;-2.260;2023-02-11T00:41:28;9.40;99.90
44671;DHT22;48397;53.016;-2.260;2023-02-11T00:43:59;9.40;99.90
44671;DHT22;48397;53.016;-2.260;2023-02-11T00:46:28;9.30;99.90
44671;DHT22;48397;53.016;-2.260;2023-02-11T00:48:56;9.30;99.90
44671;DHT22;48397;53.016;-2.260;2023-02-11T00:51:26;9.30;99.90
44671;DHT22;48397;53.016;-2.260;2023-02-11T00:53:54;9.30;99.90
44671;DHT22;48397;53.016;-2.260;2023-02-11T00:56:22;9.30;99.90
44671;DHT22;48397;53.016;-2.260;2023-02-11T00:58:50;9.30;99.90
44671;DHT22;48397;53.016;-2.260;2023-02-11T01:01:18;9.30;99.90
44671;DHT22;48397;53.016;-2.260;2023-02-11T01:03:49;9.30;99.90
44671;DHT22;48397;53.016;-2.260;2023-02-11T01:06:18;9.30;99.90
44671;DHT22;48397;53.016;-2.260;2023-02-11T01:08:45;9.30;99.90
44671;DHT22;48397;53.016;-2.260;2023-02-11T01:11:18;9.30;99.90
44671;DHT22;48397;53.016;-2.260;2023-02-11T01:13:47;9.40;99.90
44671;DHT22;48397;53.016;-2.260;2023-02-11T01:16:16;9.30;99.90
44671;DHT22;48397;53.016;-2.260;2023-02-11T01:18:45;9.30;99.90
44671;DHT22;48397;53.016;-2.260;2023-02-11T01:21:12;9.30;99.90
44671;DHT22;48397;53.016;-2.260;2023-02-11T01:23:42;9.30;99.90
44671;DHT22;48397;53.016;-2.260;2023-02-11T01:26:11;9.30;99.90
44671;DHT22;48397;53.016;-2.260;2023-02-11T01:28:39;9.30;99.90
44671;DHT22;48397;53.016;-2.260;2023-02-11T01:31:09;9.30;99.90
44671;DHT22;48397;53.016;-2.260;2023-02-11T01:33:38;9.30;99.90
44671;DHT22;48397;53.016;-2.260;2023-02-11T01:36:07;9.30;99.90
44671;DHT22;48397;53.016;-2.260;2023-02-11T01:38:36;9.40;99.90
44671;DHT22;48397;53.016;-2.260;2023-02-11T01:41:08;9.40;99.90
44671;DHT22;48397;53.016;-2.260;2023-02-11T01:43:39;9.30;99.90
44671;DHT22;48397;53.016;-2.260;2023-02-11T01:46:31;9.50;99.90
44671;DHT22;48397;53.016;-2.260;2023-02-11T01:49:05;9.50;99.90
44671;DHT22;48397;53.016;-2.260;2023-02-11T01:51:38;9.50;99.90
44671;DHT22;48397;53.016;-2.260;2023-02-11T01:54:10;9.60;99.90
44671;DHT22;48397;53.016;-2.260;2023-02-11T01:56:58;9.70;99.90
44671;DHT22;48397;53.016;-2.260;2023-02-11T02:00:18;9.70;99.90
44671;DHT22;48397;53.016;-2.260;2023-02-11T02:03:21;9.70;99.90
44671;DHT22;48397;53.016;-2.260;2023-02-11T02:06:02;9.70;99.90
44671;DHT22;48397;53.016;-2.260;2023-02-11T02:11:02;9.70;99.90
44671;DHT22;48397;53.016;-2.260;2023-02-11T02:13:33;9.70;99.90
44671;DHT22;48397;53.016;-2.260;2023-02-11T02:16:05;9.70;99.90
44671;DHT22;48397;53.016;-2.260;2023-02-11T02:19:12;9.70;99.90
44671;DHT22;48397;53.016;-2.260;2023-02-11T02:40:58;9.40;99.90
44671;DHT22;48397;53.016;-2.260;2023-02-11T02:43:28;9.50;99.90
44671;DHT22;48397;53.016;-2.260;2023-02-11T02:46:09;9.40;99.90
44671;DHT22;48397;53.016;-2.260;2023-02-11T02:48:37;9.40;99.90
44671;DHT22;48397;53.016;-2.260;2023-02-11T02:51:19;9.50;99.90
44671;DHT22;48397;53.016;-2.260;2023-02-11T03:07:58;9.30;99.90
44671;DHT22;48397;53.016;-2.260;2023-02-11T03:10:35;9.30;99.90
44671;DHT22;48397;53.016;-2.260;2023-02-11T03:13:05;9.30;99.90
44671;DHT22;48397;53.016;-2.260;2023-02-11T03:15:38;9.20;99.90
44671;DHT22;48397;53.016;-2.260;2023-02-11T03:18:11;9.20;99.90
44671;DHT22;48397;53.016;-2.260;2023-02-11T03:20:43;9.10;99.90
44671;DHT22;48397;53.016;-2.260;2023-02-11T03:23:15;9.10;99.90
44671;DHT22;48397;53.016;-2.260;2023-02-11T03:25:51;9.10;99.90
44671;DHT22;48397;53.016;-2.260;2023-02-11T03:28:33;9.10;99.90
44671;DHT22;48397;53.016;-2.260;2023-02-11T03:34:21;9.10;99.90
44671;DHT22;48397;53.016;-2.260;2023-02-11T03:36:54;9.00;99.90
44671;DHT22;48397;53.016;-2.260;2023-02-11T03:39:27;9.00;99.90
44671;DHT22;48397;53.016;-2.260;2023-02-11T03:41:58;8.90;99.90
44671;DHT22;48397;53.016;-2.260;2023-02-11T03:44:36;8.90;99.90
44671;DHT22;48397;53.016;-2.260;2023-02-11T03:47:09;8.90;99.90
44671;DHT22;48397;53.016;-2.260;2023-02-11T03:49:38;8.80;99.90
44671;DHT22;48397;53.016;-2.260;2023-02-11T03:52:08;8.80;99.90
44671;DHT22;48397;53.016;-2.260;2023-02-11T03:54:40;8.80;99.90
44671;DHT22;48397;53.016;-2.260;2023-02-11T03:57:09;6.50;99.90
44671;DHT22;48397;53.016;-2.260;2023-02-11T03:59:57;8.80;99.90
44671;DHT22;48397;53.016;-2.260;2023-02-11T04:02:31;8.90;99.90
44671;DHT22;48397;53.016;-2.260;2023-02-11T04:05:00;8.80;99.90
44671;DHT22;48397;53.016;-2.260;2023-02-11T04:07:28;8.90;99.90
44671;DHT22;48397;53.016;-2.260;2023-02-11T04:09:56;8.80;99.90
44671;DHT22;48397;53.016;-2.260;2023-02-11T04:12:23;8.80;99.90
44671;DHT22;48397;53.016;-2.260;2023-02-11T04:14:51;8.80;99.90
44671;DHT22;48397;53.016;-2.260;2023-02-11T04:17:19;8.80;99.90
44671;DHT22;48397;53.016;-2.260;2023-02-11T04:19:47;8.80;99.90
44671;DHT22;48397;53.016;-2.260;2023-02-11T04:22:14;8.80;99.90
44671;DHT22;48397;53.016;-2.260;2023-02-11T04:24:42;8.90;99.90
44671;DHT22;48397;53.016;-2.260;2023-02-11T04:27:10;8.80;99.90
44671;DHT22;48397;53.016;-2.260;2023-02-11T04:29:38;8.80;99.90
44671;DHT22;48397;53.016;-2.260;2023-02-11T04:32:05;8.80;99.90
44671;DHT22;48397;53.016;-2.260;2023-02-11T04:34:33;8.80;99.90
44671;DHT22;48397;53.016;-2.260;2023-02-11T04:37:01;8.80;99.90
44671;DHT22;48397;53.016;-2.260;2023-02-11T04:41:56;8.80;99.90
44671;DHT22;48397;53.016;-2.260;2023-02-11T04:44:24;8.70;99.90
44671;DHT22;48397;53.016;-2.260;2023-02-11T04:46:52;8.70;99.90
44671;DHT22;48397;53.016;-2.260;2023-02-11T04:49:20;8.70;99.90
44671;DHT22;48397;53.016;-2.260;2023-02-11T04:51:48;8.70;99.90
44671;DHT22;48397;53.016;-2.260;2023-02-11T04:54:16;8.70;99.90
44671;DHT22;48397;53.016;-2.260;2023-02-11T04:56:44;8.70;99.90
44671;DHT22;48397;53.016;-2.260;2023-02-11T04:59:11;8.80;99.90
44671;DHT22;48397;53.016;-2.260;2023-02-11T05:01:39;8.70;99.90
44671;DHT22;48397;53.016;-2.260;2023-02-11T05:04:07;8.80;99.90
44671;DHT22;48397;53.016;-2.260;2023-02-11T05:06:37;8.80;99.90
44671;DHT22;48397;53.016;-2.260;2023-02-11T05:09:06;8.80;99.90
44671;DHT22;48397;53.016;-2.260;2023-02-11T05:11:34;8.80;99.90
44671;DHT22;48397;53.016;-2.260;2023-02-11T05:14:02;8.80;99.90
44671;DHT22;48397;53.016;-2.260;2023-02-11T05:16:30;8.70;99.90
44671;DHT22;48397;53.016;-2.260;2023-02-11T05:18:58;8.70;99.90
44671;DHT22;48397;53.016;-2.260;2023-02-11T05:21:26;8.70;99.90
44671;DHT22;48397;53.016;-2.260;2023-02-11T05:23:53;8.70;99.90
44671;DHT22;48397;53.016;-2.260;2023-02-11T05:26:21;8.70;99.90
44671;DHT22;48397;53.016;-2.260;2023-02-11T05:28:49;8.60;99.90
44671;DHT22;48397;53.016;-2.260;2023-02-11T05:31:16;8.70;99.90
44671;DHT22;48397;53.016;-2.260;2023-02-11T05:33:44;8.70;99.90
44671;DHT22;48397;53.016;-2.260;2023-02-11T05:36:13;8.60;99.90
44671;DHT22;48397;53.016;-2.260;2023-02-11T05:38:41;8.60;99.90
44671;DHT22;48397;53.016;-2.260;2023-02-11T05:41:10;8.60;99.90
44671;DHT22;48397;53.016;-2.260;2023-02-11T05:43:38;8.60;99.90
44671;DHT22;48397;53.016;-2.260;2023-02-11T05:46:06;8.60;99.90
44671;DHT22;48397;53.016;-2.260;2023-02-11T05:48:34;8.60;99.90
44671;DHT22;48397;53.016;-2.260;2023-02-11T05:51:01;8.70;99.90
44671;DHT22;48397;53.016;-2.260;2023-02-11T05:53:29;8.70;99.90
44671;DHT22;48397;53.016;-2.260;2023-02-11T05:55:57;8.70;99.90
44671;DHT22;48397;53.016;-2.260;2023-02-11T05:58:24;8.60;99.90
44671;DHT22;48397;53.016;-2.260;2023-02-11T06:00:52;8.60;99.90
44671;DHT22;48397;53.016;-2.260;2023-02-11T06:03:20;8.60;99.90
44671;DHT22;48397;53.016;-2.260;2023-02-11T06:05:47;8.60;99.90
44671;DHT22;48397;53.016;-2.260;2023-02-11T06:08:16;8.60;99.90
44671;DHT22;48397;53.016;-2.260;2023-02-11T06:10:44;8.60;99.90
44671;DHT22;48397;53.016;-2.260;2023-02-11T06:15:53;8.60;99.90
44671;DHT22;48397;53.016;-2.260;2023-02-11T06:20:49;8.60;99.90
44671;DHT22;48397;53.016;-2.260;2023-02-11T06:23:18;8.50;99.90
44671;DHT22;48397;53.016;-2.260;2023-02-11T06:25:46;8.50;99.90
44671;DHT22;48397;53.016;-2.260;2023-02-11T06:28:13;8.50;99.90
44671;DHT22;48397;53.016;-2.260;2023-02-11T06:30:41;8.50;99.90
44671;DHT22;48397;53.016;-2.260;2023-02-11T06:33:09;8.50;99.90
44671;DHT22;48397;53.016;-2.260;2023-02-11T06:35:38;8.50;99.90
44671;DHT22;48397;53.016;-2.260;2023-02-11T06:38:06;8.50;99.90
44671;DHT22;48397;53.016;-2.260;2023-02-11T06:43:01;8.50;99.90
44671;DHT22;48397;53.016;-2.260;2023-02-11T06:45:29;8.50;99.90
44671;DHT22;48397;53.016;-2.260;2023-02-11T06:47:57;8.40;99.90
44671;DHT22;48397;53.016;-2.260;2023-02-11T06:50:25;8.50;99.90
44671;DHT22;48397;53.016;-2.260;2023-02-11T06:52:53;8.50;99.90
44671;DHT22;48397;53.016;-2.260;2023-02-11T06:55:21;8.40;99.90
44671;DHT22;48397;53.016;-2.260;2023-02-11T06:57:48;8.40;99.90
44671;DHT22;48397;53.016;-2.260;2023-02-11T07:00:16;8.40;99.90
44671;DHT22;48397;53.016;-2.260;2023-02-11T07:02:44;8.40;99.90
44671;DHT22;48397;53.016;-2.260;2023-02-11T07:05:12;8.40;99.90
44671;DHT22;48397;53.016;-2.260;2023-02-11T07:07:39;8.30;99.90
44671;DHT22;48397;53.016;-2.260;2023-02-11T07:10:07;8.30;99.90
44671;DHT22;48397;53.016;-2.260;2023-02-11T07:12:35;8.40;99.90
44671;DHT22;48397;53.016;-2.260;2023-02-11T07:15:04;8.40;99.90
44671;DHT22;48397;53.016;-2.260;2023-02-11T07:17:33;8.40;99.90
44671;DHT22;48397;53.016;-2.260;2023-02-11T07:20:02;8.40;99.90
44671;DHT22;48397;53.016;-2.260;2023-02-11T07:22:30;8.40;99.90
44671;DHT22;48397;53.016;-2.260;2023-02-11T07:24:58;8.40;99.90
44671;DHT22;48397;53.016;-2.260;2023-02-11T07:27:25;8.40;99.90
44671;DHT22;48397;53.016;-2.260;2023-02-11T07:29:53;8.40;99.90
44671;DHT22;48397;53.016;-2.260;2023-02-11T07:32:21;8.40;99.90
44671;DHT22;48397;53.016;-2.260;2023-02-11T07:34:48;8.40;99.90
44671;DHT22;48397;53.016;-2.260;2023-02-11T07:37:16;8.40;99.90
44671;DHT22;48397;53.016;-2.260;2023-02-11T07:39:44;8.30;99.90
44671;DHT22;48397;53.016;-2.260;2023-02-11T07:42:11;8.30;99.90
44671;DHT22;48397;53.016;-2.260;2023-02-11T07:44:39;8.30;99.90
44671;DHT22;48397;53.016;-2.260;2023-02-11T07:47:07;8.30;99.90
44671;DHT22;48397;53.016;-2.260;2023-02-11T07:49:35;8.30;99.90
44671;DHT22;48397;53.016;-2.260;2023-02-11T07:52:02;8.30;99.90
44671;DHT22;48397;53.016;-2.260;2023-02-11T07:54:30;8.30;99.90
44671;DHT22;48397;53.016;-2.260;2023-02-11T07:56:58;8.40;99.90
44671;DHT22;48397;53.016;-2.260;2023-02-11T07:59:26;8.30;99.90
44671;DHT22;48397;53.016;-2.260;2023-02-11T08:01:53;8.40;99.90
44671;DHT22;48397;53.016;-2.260;2023-02-11T08:04:21;8.40;99.90
44671;DHT22;48397;53.016;-2.260;2023-02-11T08:06:49;8.40;99.90
44671;DHT22;48397;53.016;-2.260;2023-02-11T08:09:19;8.50;99.90
44671;DHT22;48397;53.016;-2.260;2023-02-11T08:11:47;8.50;99.90
44671;DHT22;48397;53.016;-2.260;2023-02-11T08:14:14;8.50;99.90
44671;DHT22;48397;53.016;-2.260;2023-02-11T08:19:13;8.50;99.90
44671;DHT22;48397;53.016;-2.260;2023-02-11T08:21:41;8.80;99.90
44671;DHT22;48397;53.016;-2.260;2023-02-11T08:24:10;8.60;99.90
44671;DHT22;48397;53.016;-2.260;2023-02-11T08:26:37;8.50;99.90
44671;DHT22;48397;53.016;-2.260;2023-02-11T08:29:11;8.60;99.90
44671;DHT22;48397;53.016;-2.260;2023-02-11T08:31:40;8.60;99.90
44671;DHT22;48397;53.016;-2.260;2023-02-11T08:34:09;8.70;99.90
44671;DHT22;48397;53.016;-2.260;2023-02-11T08:36:39;8.70;99.90
44671;DHT22;48397;53.016;-2.260;2023-02-11T08:39:11;8.70;99.90
44671;DHT22;48397;53.016;-2.260;2023-02-11T08:41:48;8.70;99.90
44671;DHT22;48397;53.016;-2.260;2023-02-11T08:44:18;8.80;99.90
44671;DHT22;48397;53.016;-2.260;2023-02-11T08:46:46;8.80;99.90
44671;DHT22;48397;53.016;-2.260;2023-02-11T08:49:14;8.80;99.90
44671;DHT22;48397;53.016;-2.260;2023-02-11T08:51:43;8.90;99.90
44671;DHT22;48397;53.016;-2.260;2023-02-11T08:54:11;9.00;99.90
44671;DHT22;48397;53.016;-2.260;2023-02-11T08:56:38;9.10;99.90
44671;DHT22;48397;53.016;-2.260;2023-02-11T09:04:04;9.20;99.90
44671;DHT22;48397;53.016;-2.260;2023-02-11T09:06:31;9.20;99.90
44671;DHT22;48397;53.016;-2.260;2023-02-11T09:08:59;9.20;99.90
44671;DHT22;48397;53.016;-2.260;2023-02-11T09:11:33;9.20;99.90
44671;DHT22;48397;53.016;-2.260;2023-02-11T09:14:02;9.20;99.90
44671;DHT22;48397;53.016;-2.260;2023-02-11T09:16:33;9.30;99.90
44671;DHT22;48397;53.016;-2.260;2023-02-11T09:19:03;9.40;99.90
44671;DHT22;48397;53.016;-2.260;2023-02-11T09:21:30;9.40;99.90
44671;DHT22;48397;53.016;-2.260;2023-02-11T09:23:58;9.40;99.90
44671;DHT22;48397;53.016;-2.260;2023-02-11T09:26:29;9.40;99.90
44671;DHT22;48397;53.016;-2.260;2023-02-11T09:28:57;9.40;99.90
44671;DHT22;48397;53.016;-2.260;2023-02-11T09:31:26;9.40;99.90
44671;DHT22;48397;53.016;-2.260;2023-02-11T09:34:00;9.50;99.90
44671;DHT22;48397;53.016;-2.260;2023-02-11T09:36:30;9.60;99.90
44671;DHT22;48397;53.016;-2.260;2023-02-11T09:39:00;9.60;99.90
44671;DHT22;48397;53.016;-2.260;2023-02-11T09:44:28;5.90;99.90
44671;DHT22;48397;53.016;-2.260;2023-02-11T09:47:00;9.60;99.90
44671;DHT22;48397;53.016;-2.260;2023-02-11T09:49:44;9.70;99.90
44671;DHT22;48397;53.016;-2.260;2023-02-11T09:55:24;9.70;99.90
44671;DHT22;48397;53.016;-2.260;2023-02-11T09:57:53;9.70;99.90
44671;DHT22;48397;53.016;-2.260;2023-02-11T10:00:35;9.70;99.90
44671;DHT22;48397;53.016;-2.260;2023-02-11T10:11:36;9.60;99.90
44671;DHT22;48397;53.016;-2.260;2023-02-11T10:14:52;9.70;99.90
44671;DHT22;48397;53.016;-2.260;2023-02-11T10:17:38;9.70;99.90
44671;DHT22;48397;53.016;-2.260;2023-02-11T10:22:48;9.90;99.90
44671;DHT22;48397;53.016;-2.260;2023-02-11T10:25:35;10.00;99.90
44671;DHT22;48397;53.016;-2.260;2023-02-11T10:28:19;10.00;99.90
44671;DHT22;48397;53.016;-2.260;2023-02-11T10:30:58;10.10;99.90
44671;DHT22;48397;53.016;-2.260;2023-02-11T10:33:50;10.20;99.90
44671;DHT22;48397;53.016;-2.260;2023-02-11T10:36:23;10.20;99.90
44671;DHT22;48397;53.016;-2.260;2023-02-11T10:38:51;10.20;99.90
44671;DHT22;48397;53.016;-2.260;2023-02-11T10:43:46;10.30;99.90
44671;DHT22;48397;53.016;-2.260;2023-02-11T10:46:15;10.40;99.90
44671;DHT22;48397;53.016;-2.260;2023-02-11T10:48:48;10.40;99.90
44671;DHT22;48397;53.016;-2.260;2023-02-11T10:51:22;10.50;99.90
44671;DHT22;48397;53.016;-2.260;2023-02-11T10:54:17;10.50;99.90
44671;DHT22;48397;53.016;-2.260;2023-02-11T10:56:48;10.60;99.90
44671;DHT22;48397;53.016;-2.260;2023-02-11T10:59:32;10.60;99.90
44671;DHT22;48397;53.016;-2.260;2023-02-11T11:02:27;10.60;99.90
44671;DHT22;48397;53.016;-2.260;2023-02-11T11:05:02;10.70;99.90
44671;DHT22;48397;53.016;-2.260;2023-02-11T11:07:32;10.70;99.90
44671;DHT22;48397;53.016;-2.260;2023-02-11T11:10:06;10.70;99.90
44671;DHT22;48397;53.016;-2.260;2023-02-11T11:15:26;10.70;99.90
44671;DHT22;48397;53.016;-2.260;2023-02-11T11:18:14;10.60;99.90
44671;DHT22;48397;53.016;-2.260;2023-02-11T11:21:14;10.60;99.90
44671;DHT22;48397;53.016;-2.260;2023-02-11T11:24:00;10.60;99.90
44671;DHT22;48397;53.016;-2.260;2023-02-11T11:26:45;10.50;99.90
44671;DHT22;48397;53.016;-2.260;2023-02-11T11:32:19;10.50;99.90
44671;DHT22;48397;53.016;-2.260;2023-02-11T11:34:55;10.50;99.90
44671;DHT22;48397;53.016;-2.260;2023-02-11T11:37:27;10.60;99.90
44671;DHT22;48397;53.016;-2.260;2023-02-11T11:40:09;10.60;99.90
44671;DHT22;48397;53.016;-2.260;2023-02-11T11:42:38;10.60;99.90
44671;DHT22;48397;53.016;-2.260;2023-02-11T11:51:01;10.60;99.90
44671;DHT22;48397;53.016;-2.260;2023-02-11T11:53:42;10.60;99.90
44671;DHT22;48397;53.016;-2.260;2023-02-11T11:56:19;10.60;99.90
44671;DHT22;48397;53.016;-2.260;2023-02-11T11:58:48;10.50;99.90
44671;DHT22;48397;53.016;-2.260;2023-02-11T12:10:24;10.50;99.90
44671;DHT22;48397;53.016;-2.260;2023-02-11T12:13:27;10.50;99.90
44671;DHT22;48397;53.016;-2.260;2023-02-11T12:16:22;10.60;99.90
44671;DHT22;48397;53.016;-2.260;2023-02-11T12:25:21;10.40;99.90
44671;DHT22;48397;53.016;-2.260;2023-02-11T12:27:56;10.40;99.90
44671;DHT22;48397;53.016;-2.260;2023-02-11T12:30:49;10.40;99.90
44671;DHT22;48397;53.016;-2.260;2023-02-11T12:33:27;10.50;99.90
44671;DHT22;48397;53.016;-2.260;2023-02-11T12:36:07;10.40;99.90
44671;DHT22;48397;53.016;-2.260;2023-02-11T12:41:30;10.60;99.90
44671;DHT22;48397;53.016;-2.260;2023-02-11T12:45:07;10.70;99.90
44671;DHT22;48397;53.016;-2.260;2023-02-11T12:48:30;10.70;99.90
44671;DHT22;48397;53.016;-2.260;2023-02-11T12:56:33;10.70;99.90
44671;DHT22;48397;53.016;-2.260;2023-02-11T12:59:14;10.70;99.90
44671;DHT22;48397;53.016;-2.260;2023-02-11T13:01:43;10.60;99.90
44671;DHT22;48397;53.016;-2.260;2023-02-11T13:06:44;10.50;99.90
44671;DHT22;48397;53.016;-2.260;2023-02-11T13:09:25;10.60;99.90
44671;DHT22;48397;53.016;-2.260;2023-02-11T13:11:57;10.50;99.90
44671;DHT22;48397;53.016;-2.260;2023-02-11T13:14:51;10.50;99.90
44671;DHT22;48397;53.016;-2.260;2023-02-11T13:17:55;10.40;99.90
44671;DHT22;48397;53.016;-2.260;2023-02-11T13:23:21;10.20;99.90
44671;DHT22;48397;53.016;-2.260;2023-02-11T13:26:20;10.30;99.90
44671;DHT22;48397;53.016;-2.260;2023-02-11T13:31:23;10.20;99.90
44671;DHT22;48397;53.016;-2.260;2023-02-11T13:33:53;10.20;99.90
44671;DHT22;48397;53.016;-2.260;2023-02-11T13:36:26;10.20;99.90
44671;DHT22;48397;53.016;-2.260;2023-02-11T13:39:00;10.20;99.90
44671;DHT22;48397;53.016;-2.260;2023-02-11T13:41:34;10.20;99.90
44671;DHT22;48397;53.016;-2.260;2023-02-11T13:49:26;10.30;99.90
44671;DHT22;48397;53.016;-2.260;2023-02-11T13:54:25;10.30;99.90
44671;DHT22;48397;53.016;-2.260;2023-02-11T13:59:49;10.40;99.90
44671;DHT22;48397;53.016;-2.260;2023-02-11T14:05:21;10.30;99.90
44671;DHT22;48397;53.016;-2.260;2023-02-11T14:11:02;10.30;99.90
44671;DHT22;48397;53.016;-2.260;2023-02-11T14:16:22;10.50;99.90
44671;DHT22;48397;53.016;-2.260;2023-02-11T14:19:07;10.60;99.90
44671;DHT22;48397;53.016;-2.260;2023-02-11T14:21:37;10.50;99.90
44671;DHT22;48397;53.016;-2.260;2023-02-11T14:26:45;10.70;99.90
44671;DHT22;48397;53.016;-2.260;2023-02-11T14:32:04;10.80;99.90
44671;DHT22;48397;53.016;-2.260;2023-02-11T14:42:36;10.70;99.90
44671;DHT22;48397;53.016;-2.260;2023-02-11T14:45:09;10.70;99.90
44671;DHT22;48397;53.016;-2.260;2023-02-11T14:47:46;10.70;99.90
44671;DHT22;48397;53.016;-2.260;2023-02-11T14:53:03;10.60;99.90
44671;DHT22;48397;53.016;-2.260;2023-02-11T14:55:34;10.70;99.90
44671;DHT22;48397;53.016;-2.260;2023-02-11T14:58:17;10.60;99.90
44671;DHT22;48397;53.016;-2.260;2023-02-11T15:03:35;10.60;99.90
44671;DHT22;48397;53.016;-2.260;2023-02-11T15:06:10;10.60;99.90
44671;DHT22;48397;53.016;-2.260;2023-02-11T15:08:44;10.60;99.90
44671;DHT22;48397;53.016;-2.260;2023-02-11T15:11:15;10.60;99.90
44671;DHT22;48397;53.016;-2.260;2023-02-11T15:13:44;10.60;99.90
44671;DHT22;48397;53.016;-2.260;2023-02-11T15:16:18;10.60;99.90
44671;DHT22;48397;53.016;-2.260;2023-02-11T15:18:55;10.60;99.90
44671;DHT22;48397;53.016;-2.260;2023-02-11T15:21:29;10.50;99.90
44671;DHT22;48397;53.016;-2.260;2023-02-11T15:24:00;10.50;99.90
44671;DHT22;48397;53.016;-2.260;2023-02-11T15:26:29;10.40;99.90
44671;DHT22;48397;53.016;-2.260;2023-02-11T15:34:06;10.30;99.90
44671;DHT22;48397;53.016;-2.260;2023-02-11T15:36:34;10.20;99.90
44671;DHT22;48397;53.016;-2.260;2023-02-11T15:39:30;10.30;99.90
44671;DHT22;48397;53.016;-2.260;2023-02-11T15:44:46;10.30;99.90
44671;DHT22;48397;53.016;-2.260;2023-02-11T15:47:22;10.20;99.90
44671;DHT22;48397;53.016;-2.260;2023-02-11T15:49:50;10.20;99.90
44671;DHT22;48397;53.016;-2.260;2023-02-11T15:52:25;10.30;99.90
44671;DHT22;48397;53.016;-2.260;2023-02-11T15:54:55;10.30;99.90
44671;DHT22;48397;53.016;-2.260;2023-02-11T15:57:26;10.30;99.90
44671;DHT22;48397;53.016;-2.260;2023-02-11T15:59:55;10.30;99.90
44671;DHT22;48397;53.016;-2.260;2023-02-11T16:02:32;10.20;99.90
44671;DHT22;48397;53.016;-2.260;2023-02-11T16:05:07;10.20;99.90
44671;DHT22;48397;53.016;-2.260;2023-02-11T16:15:51;10.10;99.90
44671;DHT22;48397;53.016;-2.260;2023-02-11T16:18:26;10.00;99.90
44671;DHT22;48397;53.016;-2.260;2023-02-11T16:21:11;10.00;99.90
44671;DHT22;48397;53.016;-2.260;2023-02-11T16:23:42;10.00;99.90
44671;DHT22;48397;53.016;-2.260;2023-02-11T16:26:31;10.00;99.90
44671;DHT22;48397;53.016;-2.260;2023-02-11T16:29:13;10.00;99.90
44671;DHT22;48397;53.016;-2.260;2023-02-11T16:31:44;10.00;99.90
44671;DHT22;48397;53.016;-2.260;2023-02-11T16:34:17;9.90;99.90
44671;DHT22;48397;53.016;-2.260;2023-02-11T16:36:46;9.90;99.90
44671;DHT22;48397;53.016;-2.260;2023-02-11T16:39:15;9.90;99.90
44671;DHT22;48397;53.016;-2.260;2023-02-11T16:41:43;9.90;99.90
44671;DHT22;48397;53.016;-2.260;2023-02-11T16:44:11;9.80;99.90
44671;DHT22;48397;53.016;-2.260;2023-02-11T16:46:38;9.80;99.90
44671;DHT22;48397;53.016;-2.260;2023-02-11T16:49:19;9.80;99.90
44671;DHT22;48397;53.016;-2.260;2023-02-11T16:51:49;9.80;99.90
44671;DHT22;48397;53.016;-2.260;2023-02-11T16:54:18;9.80;99.90
44671;DHT22;48397;53.016;-2.260;2023-02-11T16:56:46;9.80;99.90
44671;DHT22;48397;53.016;-2.260;2023-02-11T16:59:14;9.80;99.90
44671;DHT22;48397;53.016;-2.260;2023-02-11T17:01:42;9.80;99.90
44671;DHT22;48397;53.016;-2.260;2023-02-11T17:04:30;9.70;99.90
44671;DHT22;48397;53.016;-2.260;2023-02-11T17:07:00;9.70;99.90
44671;DHT22;48397;53.016;-2.260;2023-02-11T17:11:57;9.60;99.90
44671;DHT22;48397;53.016;-2.260;2023-02-11T17:14:25;9.60;99.90
44671;DHT22;48397;53.016;-2.260;2023-02-11T17:16:53;9.60;99.90
44671;DHT22;48397;53.016;-2.260;2023-02-11T17:19:20;9.50;99.90
44671;DHT22;48397;53.016;-2.260;2023-02-11T17:21:50;9.50;99.90
44671;DHT22;48397;53.016;-2.260;2023-02-11T17:24:19;9.50;99.90
44671;DHT22;48397;53.016;-2.260;2023-02-11T17:26:48;9.50;99.90
44671;DHT22;48397;53.016;-2.260;2023-02-11T17:29:21;9.50;99.90
44671;DHT22;48397;53.016;-2.260;2023-02-11T17:31:50;9.50;99.90
44671;DHT22;48397;53.016;-2.260;2023-02-11T17:34:19;9.40;99.90
44671;DHT22;48397;53.016;-2.260;2023-02-11T17:36:47;9.40;99.90
44671;DHT22;48397;53.016;-2.260;2023-02-11T17:39:15;9.40;99.90
44671;DHT22;48397;53.016;-2.260;2023-02-11T17:41:42;9.40;99.90
44671;DHT22;48397;53.016;-2.260;2023-02-11T17:46:38;9.30;99.90
44671;DHT22;48397;53.016;-2.260;2023-02-11T17:49:06;10.70;99.90
44671;DHT22;48397;53.016;-2.260;2023-02-11T17:51:36;9.30;99.90
44671;DHT22;48397;53.016;-2.260;2023-02-11T17:54:07;9.30;99.90
44671;DHT22;48397;53.016;-2.260;2023-02-11T17:56:36;9.30;99.90
44671;DHT22;48397;53.016;-2.260;2023-02-11T17:59:05;9.30;99.90
44671;DHT22;48397;53.016;-2.260;2023-02-11T18:01:35;9.30;99.90
44671;DHT22;48397;53.016;-2.260;2023-02-11T18:04:04;9.30;99.90
44671;DHT22;48397;53.016;-2.260;2023-02-11T18:06:32;9.40;99.90
44671;DHT22;48397;53.016;-2.260;2023-02-11T18:09:00;9.40;99.90
44671;DHT22;48397;53.016;-2.260;2023-02-11T18:11:32;9.30;99.90
44671;DHT22;48397;53.016;-2.260;2023-02-11T18:14:02;9.30;99.90
44671;DHT22;48397;53.016;-2.260;2023-02-11T18:19:12;9.20;99.90
44671;DHT22;48397;53.016;-2.260;2023-02-11T18:21:39;9.30;99.90
44671;DHT22;48397;53.016;-2.260;2023-02-11T18:24:08;9.20;99.90
44671;DHT22;48397;53.016;-2.260;2023-02-11T18:26:38;9.20;99.90
44671;DHT22;48397;53.016;-2.260;2023-02-11T18:29:12;7.50;99.90
44671;DHT22;48397;53.016;-2.260;2023-02-11T18:31:41;9.20;99.90
44671;DHT22;48397;53.016;-2.260;2023-02-11T18:34:10;9.10;99.90
44671;DHT22;48397;53.016;-2.260;2023-02-11T18:36:37;9.10;99.90
44671;DHT22;48397;53.016;-2.260;2023-02-11T18:39:05;9.10;99.90
44671;DHT22;48397;53.016;-2.260;2023-02-11T18:44:01;9.10;99.90
44671;DHT22;48397;53.016;-2.260;2023-02-11T18:46:30;9.10;99.90
44671;DHT22;48397;53.016;-2.260;2023-02-11T18:48:58;9.10;99.90
44671;DHT22;48397;53.016;-2.260;2023-02-11T18:51:26;9.10;99.90
44671;DHT22;48397;53.016;-2.260;2023-02-11T18:53:54;9.00;99.90
44671;DHT22;48397;53.016;-2.260;2023-02-11T18:56:22;9.00;99.90
44671;DHT22;48397;53.016;-2.260;2023-02-11T18:58:51;9.00;99.90
44671;DHT22;48397;53.016;-2.260;2023-02-11T19:01:21;9.00;99.90
44671;DHT22;48397;53.016;-2.260;2023-02-11T19:03:50;9.00;99.90
44671;DHT22;48397;53.016;-2.260;2023-02-11T19:06:22;9.00;99.90